• Join FlightAware (Why Join?)
  • Login
  • US Flag 
09:09PM EDT


 

Airport Tracker/Info


-or-


 

Live Flight TrackerFlight Track Log ✈ N76AD ✈ 06-Aug-2013 ✈ KFMH - KFRG

Flight Track Log - Related Links

Times and Time Zones

All times are in EDT time to prevent confusion due to time zone crossing. See the N76AD flight status page for this flight to view local times or setup timezone preferences in your user account.

Time Position Orientation Groundspeed Altitude Reporting Facility
EDT Latitude Longitude Course Direction KTS MPH feet Rate Location/Type
12:06PM 41.4075 -71.3772 248° West 113 130 4,500  Level Boston Center
12:07PM 41.3933 -71.4136 243° Southwest 114 131 4,500  Level Boston Center
12:08PM 41.3833 -71.4553 252° West 114 131 4,500  Level Boston Center
12:09PM 41.3733 -71.4994 253° West 117 135 4,500  Level Boston Center
12:10PM 41.3672 -71.5356 257° West 112 129 4,500  Level Boston Center
12:11PM 41.3614 -71.5717 258° West 116 133 4,500  Level Boston Center
12:12PM 41.3768 -71.4330 248° West  Level Estimated
12:12PM 41.3533 -71.6161 256° West 113 130 4,500  Level Boston Center
12:13PM 41.3431 -71.6547 250° West 119 137 4,500  Level Boston Center
12:14PM 41.3350 -71.6964 256° West 115 132 4,500  Level Boston Center
12:15PM 41.3269 -71.7325 253° West 120 138 4,500  Level Boston Center
12:16PM 41.3211 -71.7739 259° West 113 130 4,500  Level Boston Center
12:17PM 41.3131 -71.8322 260° West 111 128 4,500  Level Boston Center
12:18PM 41.3069 -71.8653 256° West 114 131 4,500 -60 Level Boston Center
12:19PM 41.3008 -71.9014 257° West 121 139 4,400 -60 Descending Boston Center
12:20PM 41.2906 -71.9400 251° West 113 130 4,400  Level Boston Center
12:21PM 41.2700 -71.9872 240° Southwest 114 131 4,400  Level Boston Center
12:22PM 41.2533 -72.0314 243° Southwest 115 132 4,400  Level Boston Center
12:23PM 41.2431 -72.0703 251° West 115 132 4,500  Climbing Boston Center
12:24PM 41.2267 -72.1061 239° Southwest 113 130 4,400  Descending Boston Center
12:25PM 41.2100 -72.1450 240° Southwest 114 131 4,500  Climbing Boston Center
12:28PM 41.1833 -72.2333 248° West 116 133 4,500  Level New York TRACON
12:29PM 41.1667 -72.2833 246° West 114 131 4,500  Level New York TRACON
12:30PM 41.1500 -72.3167 236° Southwest 118 136 4,500  Level New York TRACON
12:31PM 41.1333 -72.3500 236° Southwest 116 133 4,500  Level New York TRACON
12:32PM 41.1333 -72.4000 270° West 114 131 4,500 -60 Level New York TRACON
12:33PM 41.1167 -72.4333 236° Southwest 114 131 4,400  Descending New York TRACON
12:34PM 41.1000 -72.4667 236° Southwest 113 130 4,500 -60 Climbing New York TRACON
12:35PM 41.0833 -72.5000 236° Southwest 120 138 4,300 -180 Descending New York TRACON
12:36PM 41.0667 -72.5500 246° West 119 137 4,200 -60 Descending New York TRACON
12:37PM 41.0667 -72.5833 270° West 119 137 4,200  Level New York TRACON
12:38PM 41.0500 -72.6333 246° West 119 137 4,200 -120 Level New York TRACON
12:39PM 41.0500 -72.6833 270° West 123 142 4,000 -120 Descending New York TRACON
12:40PM 41.0500 -72.7167 270° West 121 139 4,000 -360 Level New York TRACON
12:41PM 41.0333 -72.7667 246° West 120 138 3,400 -540 Descending New York TRACON
12:42PM 41.0333 -72.8167 270° West 126 145 3,000 -360 Descending New York TRACON
12:43PM 41.0167 -72.8500 236° Southwest 121 139 2,700 -300 Descending New York TRACON
12:44PM 41.0167 -72.9000 270° West 117 135 2,500 -180 Descending New York TRACON
12:45PM 41.0000 -72.9333 236° Southwest 110 127 2,400  Descending New York TRACON
12:46PM 41.0000 -72.9667 270° West 120 138 2,500  Climbing New York TRACON
12:47PM 41.0000 -73.0167 270° West 114 131 2,400  Descending New York TRACON
12:48PM 40.9833 -73.0500 236° Southwest 112 129 2,500  Climbing New York TRACON
12:49PM 40.9833 -73.0833 270° West 109 125 2,500  Level New York TRACON
12:50PM 40.9667 -73.1333 246° West 111 128 2,500 -60 Level New York TRACON
12:51PM 40.9667 -73.1667 270° West 114 131 2,400  Descending New York TRACON
12:52PM 40.9667 -73.2167 270° West 110 127 2,500  Climbing New York TRACON
12:53PM 40.9500 -73.2500 237° Southwest 111 128 2,400 -120 Descending New York TRACON
12:55PM 40.9075 -73.2815 209° Southwest  Level Estimated
01:02PM 40.7288 -73.4134 209° Southwest  Level Estimated
01:03PM 40.7288 -73.4134 131° Southeast  Level Estimated
01:04PM 40.7288 -73.4134 131° Southeast  Level Estimated
01:05PM 40.7288 -73.4134 131° Southeast  Level Estimated
01:06PM 40.7288 -73.4134 131° Southeast  Level Estimated
01:07PM 40.7288 -73.4134 131° Southeast  Level Estimated
01:08PM 40.7288 -73.4134 131° Southeast  Level Estimated
01:09PM 40.7288 -73.4134 131° Southeast  Level Estimated
01:10PM 40.7288 -73.4134 131° Southeast  Level Estimated
01:11PM 40.7288 -73.4134 131° Southeast  Level Estimated
01:12PM 40.7288 -73.4134 131° Southeast  Level Estimated
01:13PM 40.7288 -73.4134 131° Southeast  Level Estimated
01:14PM 40.7288 -73.4134 131° Southeast  Level Estimated
01:15PM 40.7288 -73.4134 131° Southeast  Level Estimated
01:16PM 40.7288 -73.4134 131° Southeast  Level Estimated
01:17PM 40.7288 -73.4134 131° Southeast  Level Estimated
01:18PM 40.7288 -73.4134 131° Southeast  Level Estimated
01:19PM 40.7288 -73.4134 131° Southeast  Level Estimated
01:20PM 40.7288 -73.4134 131° Southeast  Level Estimated